PGT85XU EDDV-LTFJ
Flight info
| Callsign | PGT85XU |
|---|---|
| Flight time | N/A |
| Altitude | 37000 |
| Route | POVEL Y800 TADUV Z21 OSTRA DCT OMELO DCT MAVOR DCT TEGRI DCT TIMUR L606 ADORU UM19 IBODU |
| Aircraft | B738/M-SDE2E3FGIRWXY/LB1 |
Departure
| Time | 2026-05-07 14:10 |
|---|---|
| Airport | Hannover Airport (EDDV) |
Arrival
| Time | N/A |
|---|---|
| Airport | Istanbul Sabiha Gökçen International Airport (LTFJ) |
| Time | Latitude | Longitude | Altitude | Speed | Heading |
|---|---|---|---|---|---|
| 2026-05-07 13:16 | 52.45740 | 9.69965 | 177 ft | 0 kts | 32° |
| 2026-05-07 13:36 | 52.45739 | 9.69965 | 177 ft | 0 kts | 32° |
| 2026-05-07 13:49 | 52.45739 | 9.69964 | 177 ft | 0 kts | 32° |
| 2026-05-07 13:59 | 52.45728 | 9.69953 | 177 ft | 4 kts | 25° |
| 2026-05-07 13:59 | 52.45703 | 9.69942 | 177 ft | 4 kts | 359° |
| 2026-05-07 13:59 | 52.45679 | 9.69951 | 177 ft | 4 kts | 323° |
| 2026-05-07 14:00 | 52.45667 | 9.69979 | 177 ft | 2 kts | 273° |
| 2026-05-07 14:00 | 52.45666 | 9.69981 | 177 ft | 2 kts | 272° |
| 2026-05-07 14:03 | 52.45667 | 9.69979 | 177 ft | 1 kts | 272° |
| 2026-05-07 14:03 | 52.45669 | 9.69918 | 177 ft | 10 kts | 273° |
| 2026-05-07 14:03 | 52.45634 | 9.69828 | 177 ft | 11 kts | 205° |
| 2026-05-07 14:03 | 52.45607 | 9.69723 | 177 ft | 13 kts | 271° |
| 2026-05-07 14:04 | 52.45612 | 9.69523 | 177 ft | 20 kts | 272° |
| 2026-05-07 14:04 | 52.45618 | 9.69297 | 177 ft | 20 kts | 271° |
| 2026-05-07 14:04 | 52.45625 | 9.69077 | 177 ft | 19 kts | 273° |
| 2026-05-07 14:04 | 52.45630 | 9.68857 | 177 ft | 19 kts | 272° |
| 2026-05-07 14:05 | 52.45635 | 9.68637 | 177 ft | 19 kts | 273° |
| 2026-05-07 14:05 | 52.45642 | 9.68422 | 177 ft | 19 kts | 273° |
| 2026-05-07 14:05 | 52.45648 | 9.68213 | 177 ft | 18 kts | 271° |
| 2026-05-07 14:05 | 52.45654 | 9.68014 | 177 ft | 17 kts | 273° |
| 2026-05-07 14:06 | 52.45659 | 9.67867 | 177 ft | 10 kts | 275° |
| 2026-05-07 14:06 | 52.45646 | 9.67760 | 177 ft | 10 kts | 233° |
| 2026-05-07 14:06 | 52.45601 | 9.67708 | 178 ft | 0 kts | 197° |
| 2026-05-07 14:08 | 52.45581 | 9.67702 | 178 ft | 7 kts | 186° |
| 2026-05-07 14:08 | 52.45530 | 9.67697 | 182 ft | 6 kts | 182° |
| 2026-05-07 14:09 | 52.45499 | 9.67714 | 182 ft | 4 kts | 120° |
| 2026-05-07 14:09 | 52.45498 | 9.67734 | 182 ft | 0 kts | 92° |
| 2026-05-07 14:09 | 52.45498 | 9.67743 | 182 ft | 4 kts | 92° |
| 2026-05-07 14:09 | 52.45485 | 9.68190 | 181 ft | 79 kts | 92° |
| 2026-05-07 14:10 | 52.45448 | 9.69501 | 184 ft | 148 kts | 92° |
| 2026-05-07 14:10 | 52.45395 | 9.71408 | 674 ft | 168 kts | 92° |
| 2026-05-07 14:10 | 52.45346 | 9.73253 | 1806 ft | 164 kts | 91° |
| 2026-05-07 14:10 | 52.45297 | 9.75236 | 2400 ft | 188 kts | 91° |
| 2026-05-07 14:11 | 52.45237 | 9.77484 | 2806 ft | 202 kts | 91° |
| 2026-05-07 14:11 | 52.45172 | 9.79799 | 3430 ft | 206 kts | 91° |
| 2026-05-07 14:11 | 52.45102 | 9.82147 | 4139 ft | 209 kts | 91° |
| 2026-05-07 14:11 | 52.45027 | 9.84541 | 4855 ft | 211 kts | 91° |
| 2026-05-07 14:12 | 52.44951 | 9.86952 | 5560 ft | 213 kts | 91° |
| 2026-05-07 14:12 | 52.44873 | 9.89404 | 6177 ft | 218 kts | 91° |
| 2026-05-07 14:12 | 52.44792 | 9.91901 | 6772 ft | 221 kts | 92° |
| 2026-05-07 14:12 | 52.44521 | 9.94397 | 7271 ft | 230 kts | 111° |
| 2026-05-07 14:13 | 52.43731 | 9.96812 | 7536 ft | 250 kts | 118° |
| 2026-05-07 14:13 | 52.42809 | 9.99390 | 7832 ft | 271 kts | 119° |
| 2026-05-07 14:13 | 52.41844 | 10.02069 | 8538 ft | 276 kts | 119° |
| 2026-05-07 14:13 | 52.40858 | 10.04812 | 9312 ft | 280 kts | 119° |
| 2026-05-07 14:14 | 52.39862 | 10.07592 | 10006 ft | 286 kts | 120° |
| 2026-05-07 14:14 | 52.38842 | 10.10445 | 10494 ft | 299 kts | 120° |
| 2026-05-07 14:14 | 52.37750 | 10.13504 | 10664 ft | 322 kts | 120° |
| 2026-05-07 14:14 | 52.36583 | 10.16780 | 10907 ft | 342 kts | 120° |
| 2026-05-07 14:15 | 52.35385 | 10.20137 | 11472 ft | 350 kts | 120° |
| 2026-05-07 14:15 | 52.34150 | 10.23600 | 12230 ft | 354 kts | 120° |
| 2026-05-07 14:15 | 52.32899 | 10.27102 | 12965 ft | 359 kts | 120° |
| 2026-05-07 14:15 | 52.32049 | 10.29482 | 13456 ft | 361 kts | 120° |
| 2026-05-07 14:16 | 52.30358 | 10.34209 | 14318 ft | 366 kts | 120° |
| 2026-05-07 14:16 | 52.29061 | 10.37829 | 14928 ft | 370 kts | 120° |
| 2026-05-07 14:16 | 52.27752 | 10.41476 | 15546 ft | 374 kts | 120° |
| 2026-05-07 14:16 | 52.26431 | 10.45155 | 16174 ft | 377 kts | 120° |
| 2026-05-07 14:17 | 52.25097 | 10.48861 | 16775 ft | 381 kts | 121° |
| 2026-05-07 14:17 | 52.23747 | 10.52607 | 17350 ft | 385 kts | 121° |
| 2026-05-07 14:17 | 52.22385 | 10.56383 | 17996 ft | 387 kts | 121° |
| 2026-05-07 14:17 | 52.21029 | 10.60134 | 18541 ft | 391 kts | 121° |
| 2026-05-07 14:18 | 52.20561 | 10.61428 | 18709 ft | 392 kts | 121° |
| 2026-05-07 14:18 | 52.18241 | 10.67836 | 19555 ft | 398 kts | 121° |
| 2026-05-07 14:18 | 52.16822 | 10.71744 | 20080 ft | 401 kts | 121° |
| 2026-05-07 14:18 | 52.15401 | 10.75657 | 20614 ft | 403 kts | 121° |
| 2026-05-07 14:19 | 52.13963 | 10.79606 | 21153 ft | 406 kts | 121° |
| 2026-05-07 14:19 | 52.12515 | 10.83572 | 21637 ft | 410 kts | 121° |
| 2026-05-07 14:19 | 52.11004 | 10.87532 | 22136 ft | 413 kts | 123° |
| 2026-05-07 14:19 | 52.09442 | 10.91486 | 22586 ft | 416 kts | 123° |
| 2026-05-07 14:20 | 52.07856 | 10.95458 | 23027 ft | 420 kts | 123° |
| 2026-05-07 14:20 | 52.06280 | 10.99403 | 23482 ft | 423 kts | 123° |
| 2026-05-07 14:20 | 52.04675 | 11.03426 | 23910 ft | 425 kts | 123° |
| 2026-05-07 14:20 | 52.03063 | 11.07478 | 24345 ft | 427 kts | 123° |
| 2026-05-07 14:21 | 52.01448 | 11.11543 | 24831 ft | 428 kts | 123° |
| 2026-05-07 14:21 | 51.99838 | 11.15594 | 25290 ft | 429 kts | 123° |
| 2026-05-07 14:21 | 51.98216 | 11.19673 | 25642 ft | 431 kts | 123° |
| 2026-05-07 14:21 | 51.96582 | 11.23774 | 26029 ft | 433 kts | 123° |
| 2026-05-07 14:22 | 51.94949 | 11.27869 | 26436 ft | 433 kts | 123° |
| 2026-05-07 14:22 | 51.93304 | 11.31986 | 26845 ft | 434 kts | 123° |
| 2026-05-07 14:22 | 51.91677 | 11.36049 | 27224 ft | 435 kts | 123° |
| 2026-05-07 14:22 | 51.89997 | 11.40238 | 27593 ft | 436 kts | 123° |
| 2026-05-07 14:23 | 51.88370 | 11.44290 | 27927 ft | 438 kts | 123° |
| 2026-05-07 14:23 | 51.86704 | 11.48434 | 28282 ft | 439 kts | 123° |
| 2026-05-07 14:23 | 51.85035 | 11.52581 | 28594 ft | 441 kts | 123° |
| 2026-05-07 14:23 | 51.83352 | 11.56753 | 28888 ft | 443 kts | 123° |
| 2026-05-07 14:24 | 51.81663 | 11.60931 | 29222 ft | 444 kts | 123° |
| 2026-05-07 14:24 | 51.79969 | 11.65116 | 29555 ft | 445 kts | 123° |
| 2026-05-07 14:24 | 51.78288 | 11.69264 | 29893 ft | 446 kts | 123° |
| 2026-05-07 14:24 | 51.76585 | 11.73463 | 30255 ft | 446 kts | 123° |
| 2026-05-07 14:25 | 51.74881 | 11.77657 | 30578 ft | 446 kts | 123° |
| 2026-05-07 14:25 | 51.73180 | 11.81839 | 30887 ft | 446 kts | 123° |
| 2026-05-07 14:25 | 51.71472 | 11.86031 | 31149 ft | 447 kts | 123° |
| 2026-05-07 14:25 | 51.69765 | 11.90214 | 31415 ft | 447 kts | 123° |
| 2026-05-07 14:26 | 51.68050 | 11.94412 | 31708 ft | 447 kts | 123° |
| 2026-05-07 14:26 | 51.66335 | 11.98605 | 31987 ft | 448 kts | 123° |
| 2026-05-07 14:26 | 51.64623 | 12.02780 | 32261 ft | 448 kts | 123° |
| 2026-05-07 14:26 | 51.62898 | 12.06974 | 32525 ft | 448 kts | 123° |
| 2026-05-07 14:27 | 51.61174 | 12.11150 | 32784 ft | 449 kts | 124° |
| 2026-05-07 14:27 | 51.59441 | 12.15338 | 33048 ft | 449 kts | 124° |
| 2026-05-07 14:27 | 51.57711 | 12.19513 | 33319 ft | 449 kts | 124° |
| 2026-05-07 14:27 | 51.55974 | 12.23702 | 33572 ft | 449 kts | 124° |
| 2026-05-07 14:28 | 51.54261 | 12.27828 | 33793 ft | 450 kts | 124° |
| 2026-05-07 14:28 | 51.52520 | 12.32013 | 34018 ft | 450 kts | 124° |
| 2026-05-07 14:28 | 51.50779 | 12.36195 | 34233 ft | 450 kts | 124° |
| 2026-05-07 14:28 | 51.49041 | 12.40362 | 34413 ft | 450 kts | 124° |
| 2026-05-07 14:29 | 51.47291 | 12.44552 | 34596 ft | 451 kts | 125° |
| 2026-05-07 14:29 | 51.45542 | 12.48734 | 34777 ft | 451 kts | 125° |
| 2026-05-07 14:29 | 51.43793 | 12.52907 | 35020 ft | 451 kts | 125° |
| 2026-05-07 14:29 | 51.42058 | 12.57085 | 35222 ft | 451 kts | 124° |
| 2026-05-07 14:30 | 51.40390 | 12.61327 | 35378 ft | 451 kts | 123° |
| 2026-05-07 14:30 | 51.38744 | 12.65625 | 35532 ft | 452 kts | 123° |
| 2026-05-07 14:30 | 51.37102 | 12.69927 | 35709 ft | 452 kts | 123° |
| 2026-05-07 14:30 | 51.35456 | 12.74207 | 35897 ft | 452 kts | 123° |
| 2026-05-07 14:31 | 51.33798 | 12.78482 | 36048 ft | 452 kts | 123° |
| 2026-05-07 14:31 | 51.32133 | 12.82753 | 36220 ft | 452 kts | 124° |
| 2026-05-07 14:31 | 51.30464 | 12.87018 | 36405 ft | 452 kts | 124° |
| 2026-05-07 14:31 | 51.28820 | 12.91209 | 36607 ft | 452 kts | 124° |
| 2026-05-07 14:32 | 51.27100 | 12.95509 | 36770 ft | 452 kts | 125° |
| 2026-05-07 14:32 | 51.25412 | 12.99664 | 36930 ft | 452 kts | 125° |
| 2026-05-07 14:32 | 51.24830 | 13.01089 | 36983 ft | 452 kts | 125° |
| 2026-05-07 14:33 | 51.20229 | 13.12323 | 37005 ft | 454 kts | 125° |
| 2026-05-07 14:33 | 51.16796 | 13.20709 | 37006 ft | 450 kts | 126° |
| 2026-05-07 14:34 | 51.13379 | 13.29043 | 37012 ft | 447 kts | 126° |
| 2026-05-07 14:34 | 51.09970 | 13.37331 | 37009 ft | 446 kts | 126° |
| 2026-05-07 14:35 | 51.06588 | 13.45528 | 37022 ft | 445 kts | 126° |
| 2026-05-07 14:35 | 51.03175 | 13.53772 | 37021 ft | 445 kts | 126° |
| 2026-05-07 14:36 | 50.99757 | 13.62002 | 37016 ft | 446 kts | 126° |
| 2026-05-07 14:36 | 50.96344 | 13.70195 | 37020 ft | 447 kts | 126° |
| 2026-05-07 14:37 | 50.92888 | 13.78464 | 37010 ft | 449 kts | 126° |
| 2026-05-07 14:37 | 50.87684 | 13.90876 | 36994 ft | 451 kts | 127° |
| 2026-05-07 14:38 | 50.84217 | 13.99107 | 36984 ft | 452 kts | 127° |
| 2026-05-07 14:38 | 50.80357 | 14.06916 | 36984 ft | 449 kts | 133° |
| 2026-05-07 14:39 | 50.76268 | 14.14403 | 36971 ft | 450 kts | 134° |
| 2026-05-07 14:39 | 50.72200 | 14.21843 | 36975 ft | 450 kts | 134° |
| 2026-05-07 14:40 | 50.68121 | 14.29376 | 36971 ft | 450 kts | 134° |
| 2026-05-07 14:40 | 50.64745 | 14.35636 | 36970 ft | 450 kts | 134° |
| 2026-05-07 14:41 | 50.60688 | 14.43150 | 36962 ft | 450 kts | 134° |
| 2026-05-07 14:41 | 50.56629 | 14.50646 | 36955 ft | 449 kts | 134° |
| 2026-05-07 14:42 | 50.52587 | 14.58085 | 36955 ft | 447 kts | 134° |
| 2026-05-07 14:42 | 50.48545 | 14.65504 | 36948 ft | 446 kts | 134° |
| 2026-05-07 14:43 | 50.44500 | 14.72904 | 36956 ft | 445 kts | 134° |
| 2026-05-07 14:43 | 50.40495 | 14.80211 | 36951 ft | 443 kts | 134° |
| 2026-05-07 14:44 | 50.36474 | 14.87526 | 36948 ft | 443 kts | 135° |
| 2026-05-07 14:44 | 50.32450 | 14.94827 | 36953 ft | 442 kts | 135° |
| 2026-05-07 14:45 | 50.28426 | 15.02106 | 36950 ft | 442 kts | 135° |
| 2026-05-07 14:45 | 50.24406 | 15.09357 | 36953 ft | 442 kts | 135° |
| 2026-05-07 14:46 | 50.20392 | 15.16577 | 36951 ft | 442 kts | 135° |
| 2026-05-07 14:46 | 50.16351 | 15.23826 | 36947 ft | 443 kts | 135° |
| 2026-05-07 14:47 | 50.12304 | 15.31064 | 36954 ft | 443 kts | 135° |
| 2026-05-07 14:47 | 50.08238 | 15.38318 | 36947 ft | 444 kts | 135° |
| 2026-05-07 14:48 | 50.04164 | 15.45566 | 36941 ft | 444 kts | 135° |
| 2026-05-07 14:48 | 50.00108 | 15.52760 | 36938 ft | 445 kts | 136° |
| 2026-05-07 14:49 | 49.96025 | 15.59982 | 36939 ft | 445 kts | 136° |
| 2026-05-07 14:49 | 49.91931 | 15.67205 | 36936 ft | 445 kts | 136° |
| 2026-05-07 14:50 | 49.87839 | 15.74403 | 36941 ft | 444 kts | 136° |
| 2026-05-07 14:50 | 49.83746 | 15.81584 | 36939 ft | 444 kts | 136° |
| 2026-05-07 14:51 | 49.79688 | 15.88683 | 36937 ft | 443 kts | 136° |
| 2026-05-07 14:51 | 49.75597 | 15.95820 | 36943 ft | 442 kts | 136° |
| 2026-05-07 14:52 | 49.71504 | 16.02940 | 36944 ft | 442 kts | 136° |
| 2026-05-07 14:52 | 49.67419 | 16.10027 | 36939 ft | 441 kts | 136° |
| 2026-05-07 14:53 | 49.63345 | 16.17075 | 36932 ft | 441 kts | 136° |
| 2026-05-07 14:53 | 49.59250 | 16.24142 | 36940 ft | 441 kts | 136° |
| 2026-05-07 14:54 | 49.55160 | 16.31181 | 36939 ft | 441 kts | 137° |
| 2026-05-07 14:54 | 49.51359 | 16.37704 | 36934 ft | 441 kts | 137° |
| 2026-05-07 14:55 | 49.47249 | 16.44740 | 36930 ft | 440 kts | 137° |
| 2026-05-07 14:55 | 49.43162 | 16.51716 | 36933 ft | 440 kts | 137° |
| 2026-05-07 14:56 | 49.39055 | 16.58709 | 36933 ft | 440 kts | 137° |
| 2026-05-07 14:56 | 49.34972 | 16.65642 | 36939 ft | 440 kts | 137° |
| 2026-05-07 14:57 | 49.30863 | 16.72602 | 36935 ft | 441 kts | 137° |
| 2026-05-07 14:57 | 49.26739 | 16.79567 | 36939 ft | 442 kts | 137° |
| 2026-05-07 14:58 | 49.22604 | 16.86531 | 36932 ft | 443 kts | 137° |
| 2026-05-07 14:58 | 49.18449 | 16.93511 | 36927 ft | 443 kts | 137° |
| 2026-05-07 14:59 | 49.14290 | 17.00481 | 36945 ft | 443 kts | 137° |
| 2026-05-07 14:59 | 49.10124 | 17.07442 | 36936 ft | 443 kts | 138° |
| 2026-05-07 15:00 | 49.05984 | 17.14341 | 36952 ft | 443 kts | 138° |
| 2026-05-07 15:00 | 49.01809 | 17.21281 | 36953 ft | 443 kts | 138° |
| 2026-05-07 15:01 | 48.97636 | 17.28199 | 36961 ft | 442 kts | 138° |
| 2026-05-07 15:01 | 48.93466 | 17.35093 | 36954 ft | 442 kts | 138° |
| 2026-05-07 15:02 | 48.89328 | 17.41918 | 36961 ft | 441 kts | 138° |
| 2026-05-07 15:02 | 48.85163 | 17.48772 | 36948 ft | 440 kts | 138° |
| 2026-05-07 15:03 | 48.80992 | 17.55579 | 36954 ft | 439 kts | 140° |
| 2026-05-07 15:03 | 48.76681 | 17.62080 | 36966 ft | 437 kts | 141° |
| 2026-05-07 15:04 | 48.72309 | 17.68488 | 36953 ft | 437 kts | 141° |
| 2026-05-07 15:04 | 48.67975 | 17.74867 | 36958 ft | 436 kts | 141° |
| 2026-05-07 15:05 | 48.63629 | 17.81294 | 36961 ft | 436 kts | 141° |
| 2026-05-07 15:05 | 48.59280 | 17.87726 | 36972 ft | 437 kts | 141° |
| 2026-05-07 15:06 | 48.54962 | 17.94100 | 36969 ft | 437 kts | 141° |
| 2026-05-07 15:06 | 48.50601 | 18.00520 | 36957 ft | 438 kts | 141° |
| 2026-05-07 15:07 | 48.46229 | 18.06940 | 36967 ft | 439 kts | 141° |
| 2026-05-07 15:07 | 48.41838 | 18.13371 | 36964 ft | 440 kts | 141° |
| 2026-05-07 15:08 | 48.37449 | 18.19783 | 36975 ft | 440 kts | 141° |
| 2026-05-07 15:08 | 48.33035 | 18.26212 | 36964 ft | 442 kts | 141° |
| 2026-05-07 15:09 | 48.28640 | 18.32601 | 36973 ft | 442 kts | 142° |
| 2026-05-07 15:09 | 48.24221 | 18.39008 | 36973 ft | 442 kts | 142° |
| 2026-05-07 15:10 | 48.19788 | 18.45419 | 36970 ft | 442 kts | 142° |
| 2026-05-07 15:10 | 48.15359 | 18.51808 | 36980 ft | 441 kts | 142° |
| 2026-05-07 15:11 | 48.10954 | 18.58147 | 36977 ft | 441 kts | 142° |
| 2026-05-07 15:11 | 48.06526 | 18.64501 | 36981 ft | 441 kts | 142° |
| 2026-05-07 15:12 | 48.02090 | 18.70852 | 36982 ft | 440 kts | 142° |
| 2026-05-07 15:12 | 47.97666 | 18.77169 | 36978 ft | 440 kts | 142° |
| 2026-05-07 15:13 | 47.93253 | 18.83454 | 36983 ft | 440 kts | 142° |